Oak Island, North Carolina
Current Conditions -  °F | °C
As of 11:15 AM on Friday 21 Nov 2014 (Local Time) from KSUT Reporting Station
Clear Clear  
Wind Chill: 53°   Ceiling: Unl
Heat Index: 53°   Visibility: 10mi
Dew Point: 24°   Wind: 7mph
Humidity: 33%   Direction: 30°NNE
Pressure: 30.4"   Gusts: NA
Location:  33.92°N, 78.16°W
Report Text: KSUT 211615Z AUTO 03006KT 10SM CLR 12/M04 A3040 RMK AO2 T01181042
Loading
Personal Weather Stations






























Interactive Weather Map New forecast layout! Learn more

10-Day Weather Forecast

Advertisements
Track Severe Weather on mobile